Lady Lauren — WDE7767 — position and weather

sailwx.info

Track history (hours):
 
Tides and Currents Weather Stations Pressure Air Temp Water Temp Dewpoint Dewpoint Depression Visibility Wind Speed Wind Dir Waves Ship Positions

Lady Lauren

Owner: Louisiana Marine Towing LLC, Lafayette, LA. More information available from US FCC via Universal Licensing System and Coast Guard Vessel Documentation Center.

Last reported at 2016-May-17 15:30 UTC. Time now 2016-May-25 11:05 UTC.
Position N 29°57' W 092°53'.

Length 22 m; draft 2.1 m.

Type: Towing. MMSI: 367397380.

Date/timePositionNaut miles runAvg speedWind from/ knotsBaromVisibWave heightAir tempDewpointWater temp
2016-May-17 15:30N 29°57' W 092°53'5 4.7
2016-May-17 14:26N 29°56' W 092°59'4 4.8
2016-May-17 13:34N 29°56' W 093°04'5 4.7
2016-May-17 12:33N 29°56' W 093°09'5 4.8
2016-May-17 11:33N 29°60' W 093°13'2 2.2
2016-May-17 10:34N 30°02' W 093°14'0 0.0
2016-May-17 09:33N 30°02' W 093°14'0 0.0
2016-May-17 08:33N 30°02' W 093°14'0 0.0
2016-May-17 07:33N 30°02' W 093°14'0 0.0
2016-May-17 06:34N 30°02' W 093°14'0 0.0
2016-May-17 05:33N 30°02' W 093°14'0 0.0
2016-May-17 04:33N 30°02' W 093°14'0 0.0
2016-May-17 03:34N 30°02' W 093°14'0 0.0
2016-May-17 02:33N 30°02' W 093°14'1 1.4
2016-May-17 01:33N 30°02' W 093°16'3 3.4
2016-May-17 00:34N 30°05' W 093°18'1 0.7
2016-May-16 23:34N 30°06' W 093°18'0 0.0
2016-May-16 22:33N 30°06' W 093°18'1 1.3
2016-May-16 21:33N 30°06' W 093°20'4 4.3
2016-May-16 20:33N 30°10' W 093°19'4 4.4
2016-May-16 19:33N 30°13' W 093°16'0 0.2
2016-May-16 18:34N 30°13' W 093°15'0 0.0
2016-May-16 17:33N 30°13' W 093°15'3 2.9
2016-May-16 16:33N 30°12' W 093°19'3 2.8
2016-May-16 15:33N 30°13' W 093°15'3 2.8
2016-May-16 14:34N 30°12' W 093°19'1 1.0
2016-May-16 13:33N 30°12' W 093°17'1 0.9
2016-May-16 12:33N 30°12' W 093°16'2 1.9
2016-May-16 11:34N 30°13' W 093°19'1 1.4
2016-May-16 10:33N 30°12' W 093°17'2 1.9
2016-May-16 09:34N 30°13' W 093°15'0 0.0
2016-May-16 08:33N 30°13' W 093°15'0 0.0
2016-May-16 07:33N 30°13' W 093°15'0 0.0
2016-May-16 06:34N 30°13' W 093°15'0 0.0
2016-May-16 05:34N 30°13' W 093°15'0 0.0
2016-May-16 04:33N 30°13' W 093°15'0 0.0
2016-May-16 03:34N 30°13' W 093°15'0 0.0
2016-May-16 02:33N 30°13' W 093°15'0 0.0
2016-May-16 01:33N 30°13' W 093°15'0 0.0
2016-May-16 00:34N 30°13' W 093°15'0 0.0
2016-May-15 23:34N 30°13' W 093°15'0 0.0
2016-May-15 22:33N 30°13' W 093°15'0 0.0
2016-May-15 21:33N 30°13' W 093°15'0 0.0
2016-May-15 20:34N 30°13' W 093°15'0 0.0
2016-May-15 19:33N 30°13' W 093°15'0 0.0
2016-May-15 18:33N 30°13' W 093°15'0 0.2
2016-May-15 17:34N 30°13' W 093°16'3 2.5
2016-May-15 16:33N 30°12' W 093°18'3 2.7
2016-May-15 15:33N 30°13' W 093°15'2 2.1
2016-May-15 14:34N 30°12' W 093°18'0 0.3
2016-May-15 13:33N 30°12' W 093°18'2 2.2
2016-May-15 12:33N 30°13' W 093°15'3 2.9
2016-May-15 11:33N 30°13' W 093°19'0 0.1
2016-May-15 10:33N 30°13' W 093°19'1 0.8
2016-May-15 09:33N 30°12' W 093°18'2 2.2
2016-May-15 08:34N 30°13' W 093°15'0 0.0
2016-May-15 07:33N 30°13' W 093°15'0 0.0
2016-May-15 06:33N 30°13' W 093°15'0 0.0
2016-May-15 05:33N 30°13' W 093°15'0 0.0
2016-May-15 04:33N 30°13' W 093°15'0 0.0
2016-May-15 03:33N 30°13' W 093°15'0 0.0
2016-May-15 02:33N 30°13' W 093°15'0 0.0
2016-May-15 01:30N 30°13' W 093°15'0 0.0
2016-May-15 00:33N 30°13' W 093°15'0 0.0
2016-May-14 23:33N 30°13' W 093°15'0 0.0
2016-May-14 22:33N 30°13' W 093°15'1 0.6
2016-May-14 21:34N 30°13' W 093°16'3 2.6
2016-May-14 20:34N 30°13' W 093°19'0 0.0
2016-May-14 19:33N 30°13' W 093°19'0 0.1
2016-May-14 18:33N 30°13' W 093°19'1 1.2
2016-May-14 17:33N 30°12' W 093°17'2 2.2
2016-May-14 16:33N 30°13' W 093°15'1 0.6
2016-May-14 15:33N 30°13' W 093°16'0 0.1
2016-May-14 14:33N 30°13' W 093°16'0 0.0
2016-May-14 13:34N 30°13' W 093°16'0 0.0
2016-May-14 12:33N 30°13' W 093°16'0 0.0
2016-May-14 11:34N 30°13' W 093°16'0 0.0
2016-May-14 10:34N 30°13' W 093°16'0 0.0
2016-May-14 09:33N 30°13' W 093°16'0 0.0
2016-May-14 08:34N 30°13' W 093°16'0 0.3
2016-May-14 07:30N 30°13' W 093°16'5 2.3
2016-May-14 05:28N 30°10' W 093°19'3 3.8
2016-May-14 04:33N 30°06' W 093°20'1 1.4
2016-May-14 03:32N 30°06' W 093°18'0 0.0
2016-May-14 02:34N 30°06' W 093°18'2 2.0
2016-May-14 01:33N 30°05' W 093°16'0 0.1
2016-May-14 00:33N 30°05' W 093°17'0 0.1
2016-May-13 23:33N 30°05' W 093°17'2 2.2
2016-May-13 22:33N 30°03' W 093°16'3 3.0
2016-May-13 21:34N 30°00' W 093°14'4 3.9
2016-May-13 20:34N 29°57' W 093°11'4 3.5
2016-May-13 19:34N 29°56' W 093°07'4 3.8
2016-May-13 18:33N 29°56' W 093°02'4 3.6
2016-May-13 17:26N 29°56' W 092°58'29 2.9
2016-May-13 07:33N 29°53' W 092°25'3 2.3
2016-May-13 06:04N 29°51' W 092°22'2 1.2
2016-May-13 04:10N 29°50' W 092°19'  
Track history (hours):
 
Tides and Currents Weather Stations Pressure Air Temp Water Temp Dewpoint Dewpoint Depression Visibility Wind Speed Wind Dir Waves Ship Positions

Lady Lauren

Owner: Louisiana Marine Towing LLC, Lafayette, LA. More information available from US FCC via Universal Licensing System and Coast Guard Vessel Documentation Center.

Last reported at 2016-May-17 15:30 UTC. Time now 2016-May-25 11:05 UTC.
Position N 29°57' W 092°53'.

Length 22 m; draft 2.1 m.

Type: Towing. MMSI: 367397380.

Date/timePositionNaut miles runAvg speedWind from/ knotsBaromVisibWave heightAir tempDewpointWater temp
2016-May-17 15:30N 29°57' W 092°53'5 4.7
2016-May-17 14:26N 29°56' W 092°59'4 4.8
2016-May-17 13:34N 29°56' W 093°04'5 4.7
2016-May-17 12:33N 29°56' W 093°09'5 4.8
2016-May-17 11:33N 29°60' W 093°13'2 2.2
2016-May-17 10:34N 30°02' W 093°14'0 0.0
2016-May-17 09:33N 30°02' W 093°14'0 0.0
2016-May-17 08:33N 30°02' W 093°14'0 0.0
2016-May-17 07:33N 30°02' W 093°14'0 0.0
2016-May-17 06:34N 30°02' W 093°14'0 0.0
2016-May-17 05:33N 30°02' W 093°14'0 0.0
2016-May-17 04:33N 30°02' W 093°14'0 0.0
2016-May-17 03:34N 30°02' W 093°14'0 0.0
2016-May-17 02:33N 30°02' W 093°14'1 1.4
2016-May-17 01:33N 30°02' W 093°16'3 3.4
2016-May-17 00:34N 30°05' W 093°18'1 0.7
2016-May-16 23:34N 30°06' W 093°18'0 0.0
2016-May-16 22:33N 30°06' W 093°18'1 1.3
2016-May-16 21:33N 30°06' W 093°20'4 4.3
2016-May-16 20:33N 30°10' W 093°19'4 4.4
2016-May-16 19:33N 30°13' W 093°16'0 0.2
2016-May-16 18:34N 30°13' W 093°15'0 0.0
2016-May-16 17:33N 30°13' W 093°15'3 2.9
2016-May-16 16:33N 30°12' W 093°19'3 2.8
2016-May-16 15:33N 30°13' W 093°15'3 2.8
2016-May-16 14:34N 30°12' W 093°19'1 1.0
2016-May-16 13:33N 30°12' W 093°17'1 0.9
2016-May-16 12:33N 30°12' W 093°16'2 1.9
2016-May-16 11:34N 30°13' W 093°19'1 1.4
2016-May-16 10:33N 30°12' W 093°17'2 1.9
2016-May-16 09:34N 30°13' W 093°15'0 0.0
2016-May-16 08:33N 30°13' W 093°15'0 0.0
2016-May-16 07:33N 30°13' W 093°15'0 0.0
2016-May-16 06:34N 30°13' W 093°15'0 0.0
2016-May-16 05:34N 30°13' W 093°15'0 0.0
2016-May-16 04:33N 30°13' W 093°15'0 0.0
2016-May-16 03:34N 30°13' W 093°15'0 0.0
2016-May-16 02:33N 30°13' W 093°15'0 0.0
2016-May-16 01:33N 30°13' W 093°15'0 0.0
2016-May-16 00:34N 30°13' W 093°15'0 0.0
2016-May-15 23:34N 30°13' W 093°15'0 0.0
2016-May-15 22:33N 30°13' W 093°15'0 0.0
2016-May-15 21:33N 30°13' W 093°15'0 0.0
2016-May-15 20:34N 30°13' W 093°15'0 0.0
2016-May-15 19:33N 30°13' W 093°15'0 0.0
2016-May-15 18:33N 30°13' W 093°15'0 0.2
2016-May-15 17:34N 30°13' W 093°16'3 2.5
2016-May-15 16:33N 30°12' W 093°18'3 2.7
2016-May-15 15:33N 30°13' W 093°15'2 2.1
2016-May-15 14:34N 30°12' W 093°18'0 0.3
2016-May-15 13:33N 30°12' W 093°18'2 2.2
2016-May-15 12:33N 30°13' W 093°15'3 2.9
2016-May-15 11:33N 30°13' W 093°19'0 0.1
2016-May-15 10:33N 30°13' W 093°19'1 0.8
2016-May-15 09:33N 30°12' W 093°18'2 2.2
2016-May-15 08:34N 30°13' W 093°15'0 0.0
2016-May-15 07:33N 30°13' W 093°15'0 0.0
2016-May-15 06:33N 30°13' W 093°15'0 0.0
2016-May-15 05:33N 30°13' W 093°15'0 0.0
2016-May-15 04:33N 30°13' W 093°15'0 0.0
2016-May-15 03:33N 30°13' W 093°15'0 0.0
2016-May-15 02:33N 30°13' W 093°15'0 0.0
2016-May-15 01:30N 30°13' W 093°15'0 0.0
2016-May-15 00:33N 30°13' W 093°15'0 0.0
2016-May-14 23:33N 30°13' W 093°15'0 0.0
2016-May-14 22:33N 30°13' W 093°15'1 0.6
2016-May-14 21:34N 30°13' W 093°16'3 2.6
2016-May-14 20:34N 30°13' W 093°19'0 0.0
2016-May-14 19:33N 30°13' W 093°19'0 0.1
2016-May-14 18:33N 30°13' W 093°19'1 1.2
2016-May-14 17:33N 30°12' W 093°17'2 2.2
2016-May-14 16:33N 30°13' W 093°15'1 0.6
2016-May-14 15:33N 30°13' W 093°16'0 0.1
2016-May-14 14:33N 30°13' W 093°16'0 0.0
2016-May-14 13:34N 30°13' W 093°16'0 0.0
2016-May-14 12:33N 30°13' W 093°16'0 0.0
2016-May-14 11:34N 30°13' W 093°16'0 0.0
2016-May-14 10:34N 30°13' W 093°16'0 0.0
2016-May-14 09:33N 30°13' W 093°16'0 0.0
2016-May-14 08:34N 30°13' W 093°16'0 0.3
2016-May-14 07:30N 30°13' W 093°16'5 2.3
2016-May-14 05:28N 30°10' W 093°19'3 3.8
2016-May-14 04:33N 30°06' W 093°20'1 1.4
2016-May-14 03:32N 30°06' W 093°18'0 0.0
2016-May-14 02:34N 30°06' W 093°18'2 2.0
2016-May-14 01:33N 30°05' W 093°16'0 0.1
2016-May-14 00:33N 30°05' W 093°17'0 0.1
2016-May-13 23:33N 30°05' W 093°17'2 2.2
2016-May-13 22:33N 30°03' W 093°16'3 3.0
2016-May-13 21:34N 30°00' W 093°14'4 3.9
2016-May-13 20:34N 29°57' W 093°11'4 3.5
2016-May-13 19:34N 29°56' W 093°07'4 3.8
2016-May-13 18:33N 29°56' W 093°02'4 3.6
2016-May-13 17:26N 29°56' W 092°58'29 2.9
2016-May-13 07:33N 29°53' W 092°25'3 2.3
2016-May-13 06:04N 29°51' W 092°22'2 1.2
2016-May-13 04:10N 29°50' W 092°19'  

Dump ship's entire track history